Time;durP1;ratioP1;P1;durP2;ratioP2;P2;SDS_P1;SDS_P2;PMS_P1;PMS_P2;Temp;Humidity;BMP_temperature;BMP_pressure;BME280_temperature;BME280_humidity;BME280_pressure;Samples;Min_cycle;Max_cycle;Signal;HPM_P1;HPM_P2
2022/03/27 00:00:25;;;;;;;16.13;8.05;;;;;;;;;;5097019;28;20517;-56
2022/03/27 00:02:50;;;;;;;14.20;10.18;;;;;;;;;;5098743;28;20055;-55
2022/03/27 00:05:16;;;;;;;10.48;7.75;;;;;;;;;;5099098;28;20116;-55
2022/03/27 00:07:41;;;;;;;23.77;8.95;;;;;;;;;;5096034;28;20094;-56
2022/03/27 00:10:07;;;;;;;23.98;10.57;;;;;;;;;;5097336;28;20571;-56
2022/03/27 00:12:33;;;;;;;25.42;10.82;;;;;;;;;;5096800;28;20091;-56
2022/03/27 00:14:58;;;;;;;41.47;12.60;;;;;;;;;;5099102;28;20047;-57
2022/03/27 00:17:23;;;;;;;18.80;12.13;;;;;;;;;;5100755;28;20142;-56
2022/03/27 00:19:49;;;;;;;22.77;10.95;;;;;;;;;;5099235;28;20486;-57
2022/03/27 00:22:14;;;;;;;16.40;10.32;;;;;;;;;;5096753;28;20486;-57
2022/03/27 00:24:40;;;;;;;9.73;7.53;;;;;;;;;;5097122;28;20071;-56
2022/03/27 00:27:05;;;;;;;15.05;7.93;;;;;;;;;;5096583;28;20141;-56
2022/03/27 00:29:31;;;;;;;10.50;7.90;;;;;;;;;;5096440;28;20043;-56
2022/03/27 00:31:56;;;;;;;21.73;9.38;;;;;;;;;;5099585;28;20070;-56
2022/03/27 00:34:21;;;;;;;11.93;10.50;;;;;;;;;;5098964;28;20079;-56
2022/03/27 00:36:48;;;;;;;14.02;8.00;;;;;;;;;;5097983;28;20556;-56
2022/03/27 00:39:13;;;;;;;13.30;8.00;;;;;;;;;;5099281;28;20097;-56
2022/03/27 00:41:38;;;;;;;13.02;9.15;;;;;;;;;;5100316;28;20560;-56
2022/03/27 00:44:04;;;;;;;18.90;11.25;;;;;;;;;;5096458;28;20525;-56
2022/03/27 00:46:29;;;;;;;15.82;9.55;;;;;;;;;;5100846;28;20054;-56
2022/03/27 00:48:54;;;;;;;9.73;6.95;;;;;;;;;;5096631;28;20397;-56
2022/03/27 00:51:20;;;;;;;13.82;8.95;;;;;;;;;;5098503;27;20665;-56
2022/03/27 00:53:45;;;;;;;21.40;8.20;;;;;;;;;;5098511;28;20495;-55
2022/03/27 00:56:11;;;;;;;15.73;9.90;;;;;;;;;;5096152;28;20491;-55
2022/03/27 00:58:36;;;;;;;20.52;10.90;;;;;;;;;;5093977;28;20044;-56
2022/03/27 01:01:01;;;;;;;14.60;11.73;;;;;;;;;;5100827;28;20043;-56
2022/03/27 01:03:27;;;;;;;19.90;10.07;;;;;;;;;;5099176;28;20486;-56
2022/03/27 01:05:53;;;;;;;13.82;9.63;;;;;;;;;;5100540;28;20047;-57
2022/03/27 01:09:35;;;;;;;12.73;9.73;;;;;;;;;;5098382;28;20494;-56
2022/03/27 01:11:11;;;;;;;18.67;7.97;;;;;;;;;;5097582;28;20096;-56
2022/03/27 01:13:36;;;;;;;17.08;8.85;;;;;;;;;;5098569;28;20174;-54
2022/03/27 01:16:02;;;;;;;20.13;7.35;;;;;;;;;;5099218;27;20510;-56
2022/03/27 01:18:28;;;;;;;7.88;6.55;;;;;;;;;;5096912;28;20090;-56
2022/03/27 01:20:53;;;;;;;15.85;11.18;;;;;;;;;;5096544;28;20120;-56
2022/03/27 01:23:18;;;;;;;21.33;15.23;;;;;;;;;;5097876;28;20036;-57
2022/03/27 01:25:44;;;;;;;17.88;13.13;;;;;;;;;;5098435;28;20181;-56
2022/03/27 01:28:11;;;;;;;11.75;10.52;;;;;;;;;;5095816;28;20047;-57
2022/03/27 01:30:37;;;;;;;12.23;9.32;;;;;;;;;;5099011;28;20079;-57
2022/03/27 01:33:03;;;;;;;22.33;11.40;;;;;;;;;;5098398;28;20132;-57
2022/03/27 01:35:28;;;;;;;15.27;10.40;;;;;;;;;;5098106;28;20052;-56
2022/03/27 01:37:53;;;;;;;15.38;11.70;;;;;;;;;;5096738;28;20495;-57
2022/03/27 01:40:19;;;;;;;14.35;11.30;;;;;;;;;;5095010;28;20519;-57
2022/03/27 01:42:44;;;;;;;11.10;9.70;;;;;;;;;;5097904;28;20609;-57
2022/03/27 01:45:10;;;;;;;16.17;10.13;;;;;;;;;;5094742;28;20039;-57
2022/03/27 01:47:36;;;;;;;15.75;7.60;;;;;;;;;;5094183;27;20512;-57
2022/03/27 01:50:02;;;;;;;22.48;9.10;;;;;;;;;;5097328;28;20130;-57
2022/03/27 01:52:27;;;;;;;11.50;7.70;;;;;;;;;;5095304;28;20182;-57
2022/03/27 01:54:52;;;;;;;9.18;8.30;;;;;;;;;;5095542;28;20130;-57
2022/03/27 01:57:18;;;;;;;27.25;8.95;;;;;;;;;;5096855;28;20111;-57
2022/03/27 01:59:43;;;;;;;13.10;7.68;;;;;;;;;;5096757;28;20055;-57
2022/03/27 02:02:09;;;;;;;12.45;9.93;;;;;;;;;;5096068;28;20229;-56
2022/03/27 02:04:35;;;;;;;9.85;7.57;;;;;;;;;;5096525;28;20585;-56
2022/03/27 02:07:00;;;;;;;10.23;7.53;;;;;;;;;;5097468;28;20044;-57
2022/03/27 02:09:25;;;;;;;11.48;7.43;;;;;;;;;;5093341;28;20709;-57
2022/03/27 02:11:51;;;;;;;20.58;8.98;;;;;;;;;;5099342;28;20076;-57
2022/03/27 02:14:16;;;;;;;11.13;7.97;;;;;;;;;;5099949;28;20047;-56
2022/03/27 02:16:42;;;;;;;8.90;7.90;;;;;;;;;;5098521;28;20131;-57
2022/03/27 02:19:09;;;;;;;16.15;8.27;;;;;;;;;;5096840;28;20047;-57
2022/03/27 02:21:35;;;;;;;12.13;8.15;;;;;;;;;;5094557;28;20047;-57
2022/03/27 02:24:03;;;;;;;12.10;8.43;;;;;;;;;;5094618;28;20043;-56
2022/03/27 02:26:28;;;;;;;11.07;7.72;;;;;;;;;;5093766;28;20100;-56
2022/03/27 02:28:54;;;;;;;15.48;9.60;;;;;;;;;;5097349;28;20047;-57
2022/03/27 02:31:19;;;;;;;11.48;8.00;;;;;;;;;;5099554;28;20090;-57
2022/03/27 02:33:44;;;;;;;9.10;8.07;;;;;;;;;;5102728;28;20032;-57
2022/03/27 02:36:10;;;;;;;14.73;8.10;;;;;;;;;;5107016;28;20042;-57
2022/03/27 02:38:35;;;;;;;18.95;9.60;;;;;;;;;;5104283;28;20095;-57
2022/03/27 02:41:01;;;;;;;13.95;8.30;;;;;;;;;;5100940;28;20044;-57
2022/03/27 02:43:26;;;;;;;10.73;7.85;;;;;;;;;;5103681;28;20066;-57
2022/03/27 02:45:53;;;;;;;19.55;8.80;;;;;;;;;;5104188;27;20450;-57
2022/03/27 02:48:18;;;;;;;10.52;9.00;;;;;;;;;;5103720;28;20762;-56
2022/03/27 02:50:43;;;;;;;10.55;8.65;;;;;;;;;;5104926;27;20083;-57
2022/03/27 02:53:10;;;;;;;10.02;8.30;;;;;;;;;;5102791;27;20360;-57
2022/03/27 02:55:35;;;;;;;12.70;8.30;;;;;;;;;;5101211;28;20040;-57
2022/03/27 02:58:02;;;;;;;10.05;7.47;;;;;;;;;;5102441;28;20063;-57
2022/03/27 03:00:27;;;;;;;15.18;9.75;;;;;;;;;;5103086;28;20051;-56
2022/03/27 03:02:53;;;;;;;15.10;7.68;;;;;;;;;;5102492;27;20096;-58
2022/03/27 03:05:19;;;;;;;14.20;8.85;;;;;;;;;;5101664;27;20358;-57
2022/03/27 03:07:45;;;;;;;12.18;8.55;;;;;;;;;;5102566;28;20496;-57
2022/03/27 03:10:10;;;;;;;21.17;11.93;;;;;;;;;;5102510;27;20044;-57
2022/03/27 03:12:36;;;;;;;11.43;9.40;;;;;;;;;;5103707;28;20043;-57
2022/03/27 03:15:02;;;;;;;12.30;8.65;;;;;;;;;;5104220;27;20088;-56
2022/03/27 03:17:28;;;;;;;10.68;8.98;;;;;;;;;;5103762;28;20491;-57
2022/03/27 03:19:53;;;;;;;17.92;9.35;;;;;;;;;;5099209;28;20158;-57
2022/03/27 03:22:18;;;;;;;10.70;8.88;;;;;;;;;;5099738;27;20044;-56
2022/03/27 03:24:44;;;;;;;11.63;8.02;;;;;;;;;;5101829;28;20116;-57
2022/03/27 03:27:09;;;;;;;14.13;9.07;;;;;;;;;;5102243;28;20044;-55
2022/03/27 03:29:35;;;;;;;10.07;7.88;;;;;;;;;;5101701;27;20052;-57
2022/03/27 03:32:00;;;;;;;20.60;11.00;;;;;;;;;;5102518;28;20044;-57
2022/03/27 03:34:26;;;;;;;16.63;9.82;;;;;;;;;;5103520;27;20036;-57
2022/03/27 03:36:51;;;;;;;15.80;9.52;;;;;;;;;;5102226;28;20675;-57
2022/03/27 03:39:16;;;;;;;17.08;8.63;;;;;;;;;;5101412;27;20076;-55
2022/03/27 03:41:42;;;;;;;16.33;9.82;;;;;;;;;;5104625;27;20054;-57
2022/03/27 03:44:07;;;;;;;32.85;9.30;;;;;;;;;;5099805;28;20561;-56
2022/03/27 03:46:33;;;;;;;12.27;9.70;;;;;;;;;;5101778;28;20051;-57
2022/03/27 03:48:58;;;;;;;10.00;8.48;;;;;;;;;;5100256;28;20514;-57
2022/03/27 03:51:24;;;;;;;13.40;9.18;;;;;;;;;;5098190;28;20074;-57
2022/03/27 03:53:49;;;;;;;8.02;7.32;;;;;;;;;;5095899;28;20529;-57
2022/03/27 03:56:14;;;;;;;16.05;9.25;;;;;;;;;;5098219;28;20627;-57
2022/03/27 03:58:40;;;;;;;16.67;8.00;;;;;;;;;;5099587;28;20101;-57
2022/03/27 04:01:05;;;;;;;17.77;10.43;;;;;;;;;;5099432;28;20520;-56
2022/03/27 04:03:30;;;;;;;11.63;9.05;;;;;;;;;;5099258;28;20132;-57
2022/03/27 04:05:56;;;;;;;17.58;9.52;;;;;;;;;;5098837;28;20044;-56
2022/03/27 04:08:21;;;;;;;12.27;9.10;;;;;;;;;;5097051;28;20531;-57
2022/03/27 04:10:47;;;;;;;14.30;11.02;;;;;;;;;;5099238;28;20119;-57
2022/03/27 04:13:12;;;;;;;16.58;10.80;;;;;;;;;;5100546;28;20124;-57
2022/03/27 04:15:38;;;;;;;13.35;11.95;;;;;;;;;;5098540;28;20036;-55
2022/03/27 04:18:04;;;;;;;23.70;11.73;;;;;;;;;;5101601;28;20055;-57
2022/03/27 04:20:29;;;;;;;17.25;12.00;;;;;;;;;;5098220;28;20113;-56
2022/03/27 04:22:55;;;;;;;15.98;13.32;;;;;;;;;;5101122;28;20044;-57
2022/03/27 04:25:20;;;;;;;17.10;10.75;;;;;;;;;;5098482;28;20458;-57
2022/03/27 04:27:46;;;;;;;15.65;10.38;;;;;;;;;;5099036;28;20548;-55
2022/03/27 04:30:12;;;;;;;12.85;10.10;;;;;;;;;;5098816;28;20502;-56
2022/03/27 04:32:37;;;;;;;25.23;11.13;;;;;;;;;;5099054;28;20043;-57
2022/03/27 04:35:04;;;;;;;13.85;10.38;;;;;;;;;;5100110;28;20525;-56
2022/03/27 04:37:29;;;;;;;11.68;10.52;;;;;;;;;;5098152;28;20581;-54
2022/03/27 04:40:01;;;;;;;18.90;12.60;;;;;;;;;;5100310;28;20054;-55
2022/03/27 04:42:27;;;;;;;21.50;11.30;;;;;;;;;;5100997;28;20503;-57
2022/03/27 04:44:52;;;;;;;12.23;9.98;;;;;;;;;;5097738;28;20055;-57
2022/03/27 04:47:17;;;;;;;12.73;8.35;;;;;;;;;;5098835;28;20051;-55
2022/03/27 04:49:42;;;;;;;23.02;10.30;;;;;;;;;;5099139;28;20067;-57
2022/03/27 04:52:08;;;;;;;20.13;11.85;;;;;;;;;;5096996;28;20127;-57
2022/03/27 04:54:34;;;;;;;24.38;15.38;;;;;;;;;;5099574;28;20383;-57
2022/03/27 04:56:59;;;;;;;12.88;11.60;;;;;;;;;;5099362;28;20170;-56
2022/03/27 04:59:25;;;;;;;11.23;9.57;;;;;;;;;;5099176;28;20566;-57
2022/03/27 05:01:51;;;;;;;16.33;10.77;;;;;;;;;;5098135;28;20035;-57
2022/03/27 05:04:16;;;;;;;17.48;11.30;;;;;;;;;;5099973;28;20104;-57
2022/03/27 05:06:41;;;;;;;17.17;11.55;;;;;;;;;;5096908;28;20046;-56
2022/03/27 05:09:07;;;;;;;19.25;11.07;;;;;;;;;;5096367;28;20086;-57
2022/03/27 05:11:32;;;;;;;31.08;12.93;;;;;;;;;;5098888;28;20062;-56
2022/03/27 05:13:57;;;;;;;12.05;10.90;;;;;;;;;;5097826;28;20635;-55
2022/03/27 05:16:23;;;;;;;20.27;11.40;;;;;;;;;;5097416;28;20043;-57
2022/03/27 05:18:48;;;;;;;10.43;9.40;;;;;;;;;;5097404;28;20098;-55
2022/03/27 05:21:14;;;;;;;20.75;9.90;;;;;;;;;;5099092;28;20502;-56
2022/03/27 05:23:39;;;;;;;18.60;11.35;;;;;;;;;;5099420;28;20043;-57
2022/03/27 05:26:04;;;;;;;15.40;10.27;;;;;;;;;;5097488;28;20070;-56
2022/03/27 05:28:30;;;;;;;23.95;12.82;;;;;;;;;;5099014;28;20048;-56
2022/03/27 05:30:56;;;;;;;18.77;13.30;;;;;;;;;;5096355;28;20109;-56
2022/03/27 05:33:22;;;;;;;12.52;11.23;;;;;;;;;;5096396;28;20103;-54
2022/03/27 05:35:47;;;;;;;17.27;13.07;;;;;;;;;;5099247;28;20051;-56
2022/03/27 05:38:13;;;;;;;21.02;13.65;;;;;;;;;;5094914;28;20512;-56
2022/03/27 05:40:39;;;;;;;14.18;11.02;;;;;;;;;;5099301;28;20097;-56
2022/03/27 05:43:05;;;;;;;15.13;11.35;;;;;;;;;;5096329;28;20530;-54
2022/03/27 05:45:30;;;;;;;22.90;12.98;;;;;;;;;;5097299;28;20113;-56
2022/03/27 05:47:56;;;;;;;12.45;9.82;;;;;;;;;;5097621;28;20083;-56
2022/03/27 05:50:22;;;;;;;29.08;10.98;;;;;;;;;;5097173;28;20115;-56
2022/03/27 05:52:48;;;;;;;12.80;9.85;;;;;;;;;;5098213;28;20123;-56
2022/03/27 05:55:13;;;;;;;12.38;9.85;;;;;;;;;;5097039;28;20059;-56
2022/03/27 05:57:39;;;;;;;29.23;14.70;;;;;;;;;;5092936;28;20775;-56
2022/03/27 06:00:06;;;;;;;16.73;14.60;;;;;;;;;;5095335;28;20130;-56
2022/03/27 06:02:32;;;;;;;16.92;12.88;;;;;;;;;;5094817;28;20044;-58
2022/03/27 06:04:57;;;;;;;31.33;12.15;;;;;;;;;;5092777;28;20063;-58
2022/03/27 06:07:22;;;;;;;13.45;10.80;;;;;;;;;;5095650;28;20048;-55
2022/03/27 06:09:48;;;;;;;26.40;11.85;;;;;;;;;;5099029;28;20032;-56
2022/03/27 06:12:14;;;;;;;19.67;11.95;;;;;;;;;;5095311;28;20079;-56
2022/03/27 06:14:39;;;;;;;17.30;12.32;;;;;;;;;;5095464;28;20044;-57
2022/03/27 06:17:04;;;;;;;22.10;15.55;;;;;;;;;;5097830;28;20067;-56
2022/03/27 06:19:30;;;;;;;21.33;15.07;;;;;;;;;;5098189;28;20184;-57
2022/03/27 06:21:56;;;;;;;24.15;14.75;;;;;;;;;;5099642;28;20096;-55
2022/03/27 06:24:22;;;;;;;17.23;13.57;;;;;;;;;;5094679;28;20052;-56
2022/03/27 06:26:47;;;;;;;18.77;14.50;;;;;;;;;;5094953;28;20043;-56
2022/03/27 06:29:14;;;;;;;16.60;13.77;;;;;;;;;;5092125;28;20040;-56
2022/03/27 06:31:39;;;;;;;15.75;12.43;;;;;;;;;;5092050;28;20529;-54
2022/03/27 06:34:06;;;;;;;27.33;17.25;;;;;;;;;;5096218;28;20048;-57
2022/03/27 06:36:31;;;;;;;20.98;13.93;;;;;;;;;;5095361;28;20101;-56
2022/03/27 06:38:57;;;;;;;23.90;15.23;;;;;;;;;;5097811;28;20263;-55
2022/03/27 06:41:22;;;;;;;25.67;13.68;;;;;;;;;;5097766;28;20047;-57
2022/03/27 06:43:47;;;;;;;28.08;12.23;;;;;;;;;;5098008;28;20555;-57
2022/03/27 06:46:16;;;;;;;17.02;11.85;;;;;;;;;;5096112;28;20154;-56
2022/03/27 06:48:42;;;;;;;19.10;11.15;;;;;;;;;;5096784;28;20047;-56
2022/03/27 06:51:07;;;;;;;13.52;10.98;;;;;;;;;;5096225;28;20050;-57
2022/03/27 06:53:33;;;;;;;13.05;9.80;;;;;;;;;;5098175;28;20048;-55
2022/03/27 06:55:58;;;;;;;23.77;11.05;;;;;;;;;;5095270;28;20047;-57
2022/03/27 06:58:23;;;;;;;19.23;10.57;;;;;;;;;;5096671;28;20418;-57
2022/03/27 07:03:32;;;;;;;11.85;9.05;;;;;;;;;;5096303;28;20485;-56
2022/03/27 07:05:58;;;;;;;15.25;9.65;;;;;;;;;;5097684;28;20047;-56
2022/03/27 07:08:23;;;;;;;24.45;13.23;;;;;;;;;;5097658;28;20044;-57
2022/03/27 07:10:49;;;;;;;20.00;12.07;;;;;;;;;;5098000;28;20110;-57
2022/03/27 07:13:15;;;;;;;20.95;14.63;;;;;;;;;;5095581;28;20487;-57
2022/03/27 07:15:41;;;;;;;26.85;11.73;;;;;;;;;;5097792;28;20104;-57
2022/03/27 07:18:07;;;;;;;15.82;11.90;;;;;;;;;;5098562;28;20048;-57
2022/03/27 07:20:34;;;;;;;21.08;11.68;;;;;;;;;;5096313;28;20051;-57
2022/03/27 07:23:00;;;;;;;29.00;12.68;;;;;;;;;;5096686;27;20052;-57
2022/03/27 07:25:27;;;;;;;16.60;10.93;;;;;;;;;;5092515;28;20036;-56
2022/03/27 07:27:52;;;;;;;28.98;12.40;;;;;;;;;;5096030;28;20066;-56
2022/03/27 07:30:18;;;;;;;18.73;12.45;;;;;;;;;;5094146;28;20048;-56
2022/03/27 07:32:44;;;;;;;18.95;10.48;;;;;;;;;;5098715;28;20059;-57
2022/03/27 07:35:11;;;;;;;23.13;10.35;;;;;;;;;;5097975;28;20556;-57
2022/03/27 07:37:36;;;;;;;21.52;11.65;;;;;;;;;;5099240;28;20126;-57
2022/03/27 07:40:03;;;;;;;15.38;10.15;;;;;;;;;;5100240;28;20566;-57
2022/03/27 07:42:29;;;;;;;19.13;12.18;;;;;;;;;;5098164;28;20050;-57
2022/03/27 07:44:55;;;;;;;28.00;13.05;;;;;;;;;;5096329;28;20082;-57
2022/03/27 07:47:20;;;;;;;27.42;10.38;;;;;;;;;;5093363;28;20048;-57
2022/03/27 07:49:45;;;;;;;20.73;10.38;;;;;;;;;;5096569;28;20114;-57
2022/03/27 07:52:11;;;;;;;26.58;10.48;;;;;;;;;;5097172;28;20044;-57
2022/03/27 07:54:37;;;;;;;13.82;9.50;;;;;;;;;;5099103;28;20039;-57
2022/03/27 07:57:03;;;;;;;11.68;10.55;;;;;;;;;;5095373;27;20046;-58
2022/03/27 07:59:28;;;;;;;19.80;9.80;;;;;;;;;;5096873;28;20044;-66
2022/03/27 08:01:53;;;;;;;27.88;14.15;;;;;;;;;;5097048;28;20071;-65
2022/03/27 08:04:18;;;;;;;18.73;10.95;;;;;;;;;;5096341;28;20568;-66
2022/03/27 08:06:46;;;;;;;16.98;12.50;;;;;;;;;;5097552;28;20151;-65
2022/03/27 08:09:12;;;;;;;29.75;10.77;;;;;;;;;;5100475;28;20327;-66
2022/03/27 08:11:41;;;;;;;27.42;12.23;;;;;;;;;;5096715;28;20517;-64
2022/03/27 08:14:07;;;;;;;21.55;13.90;;;;;;;;;;5097758;28;20093;-64
2022/03/27 08:16:32;;;;;;;22.48;14.32;;;;;;;;;;5096214;28;20443;-66
2022/03/27 08:18:57;;;;;;;31.20;12.48;;;;;;;;;;5099478;28;20567;-66
2022/03/27 08:21:23;;;;;;;13.05;11.48;;;;;;;;;;5095800;28;20157;-67
2022/03/27 08:23:48;;;;;;;18.50;9.50;;;;;;;;;;5097693;28;20051;-67
2022/03/27 08:29:02;;;;;;;19.77;13.32;;;;;;;;;;5096878;28;20569;-65
2022/03/27 08:31:27;;;;;;;25.75;12.35;;;;;;;;;;5098111;28;20096;-65
2022/03/27 08:33:53;;;;;;;33.67;14.85;;;;;;;;;;5095136;28;20692;-65
2022/03/27 08:36:18;;;;;;;15.85;11.75;;;;;;;;;;5094972;28;20762;-66
2022/03/27 08:38:43;;;;;;;18.63;11.27;;;;;;;;;;5096589;28;20043;-66
2022/03/27 08:41:09;;;;;;;16.90;11.77;;;;;;;;;;5095330;28;20172;-67
2022/03/27 08:43:34;;;;;;;19.42;12.55;;;;;;;;;;5094450;28;20093;-65
2022/03/27 08:45:59;;;;;;;31.25;11.57;;;;;;;;;;5094913;28;20502;-64
2022/03/27 08:48:29;;;;;;;38.80;12.60;;;;;;;;;;5096852;28;20125;-63
2022/03/27 08:51:07;;;;;;;17.38;12.75;;;;;;;;;;5095362;28;20050;-65
2022/03/27 08:53:52;;;;;;;24.88;16.63;;;;;;;;;;5096785;28;20039;-66
2022/03/27 08:56:18;;;;;;;25.30;15.70;;;;;;;;;;5088296;28;20059;-65
2022/03/27 08:58:44;;;;;;;33.33;12.80;;;;;;;;;;5095579;28;20048;-64
2022/03/27 09:01:11;;;;;;;18.88;11.25;;;;;;;;;;5095191;28;20052;-63
2022/03/27 09:03:37;;;;;;;19.55;12.07;;;;;;;;;;5096068;28;20051;-65
2022/03/27 09:06:04;;;;;;;17.67;11.35;;;;;;;;;;5095499;28;20044;-63
2022/03/27 09:08:29;;;;;;;15.52;9.07;;;;;;;;;;5095502;28;20090;-65
2022/03/27 09:10:55;;;;;;;19.95;11.50;;;;;;;;;;5096276;28;20083;-58
2022/03/27 09:13:21;;;;;;;20.52;11.68;;;;;;;;;;5098763;28;20043;-59
2022/03/27 09:15:56;;;;;;;26.25;16.40;;;;;;;;;;5096450;28;20039;-58
2022/03/27 09:18:22;;;;;;;23.58;13.10;;;;;;;;;;5098646;28;20094;-58
2022/03/27 09:20:51;;;;;;;24.88;17.73;;;;;;;;;;5093160;28;20708;-59
2022/03/27 09:23:16;;;;;;;29.38;15.90;;;;;;;;;;5097083;28;20134;-59
2022/03/27 09:25:43;;;;;;;22.35;13.40;;;;;;;;;;5094871;27;20239;-58
2022/03/27 09:28:09;;;;;;;24.05;12.75;;;;;;;;;;5092865;28;20206;-58
2022/03/27 09:30:36;;;;;;;21.15;11.38;;;;;;;;;;5097358;28;20153;-59
2022/03/27 09:33:02;;;;;;;22.20;11.48;;;;;;;;;;5095997;28;20131;-58
2022/03/27 09:35:28;;;;;;;16.58;11.25;;;;;;;;;;5097210;28;20039;-58
2022/03/27 09:37:53;;;;;;;30.67;11.82;;;;;;;;;;5095938;28;20092;-58
2022/03/27 09:40:18;;;;;;;14.80;11.13;;;;;;;;;;5094554;28;20123;-59
2022/03/27 09:42:44;;;;;;;21.92;10.93;;;;;;;;;;5094461;28;20044;-59
2022/03/27 09:45:11;;;;;;;11.55;7.32;;;;;;;;;;5093008;28;20131;-59
2022/03/27 09:47:36;;;;;;;9.68;6.82;;;;;;;;;;5094365;28;20476;-59
2022/03/27 09:50:02;;;;;;;5.47;4.90;;;;;;;;;;5092410;28;20614;-59
2022/03/27 09:52:28;;;;;;;13.73;11.90;;;;;;;;;;5094503;28;20043;-59
2022/03/27 09:54:53;;;;;;;20.02;9.90;;;;;;;;;;5091610;28;20523;-59
2022/03/27 09:57:19;;;;;;;22.52;11.25;;;;;;;;;;5092048;28;20139;-59
2022/03/27 09:59:46;;;;;;;13.43;10.82;;;;;;;;;;5093210;28;20047;-59
2022/03/27 10:02:17;;;;;;;7.80;6.65;;;;;;;;;;5091042;28;20116;-59
2022/03/27 10:05:02;;;;;;;15.45;10.75;;;;;;;;;;5093495;28;20048;-59
2022/03/27 10:07:32;;;;;;;10.60;6.80;;;;;;;;;;5093450;28;20035;-59
2022/03/27 10:09:58;;;;;;;13.50;6.60;;;;;;;;;;5095637;28;20151;-58
2022/03/27 10:12:34;;;;;;;9.27;5.72;;;;;;;;;;5095017;28;20051;-59
2022/03/27 10:15:03;;;;;;;18.52;14.55;;;;;;;;;;5093321;28;20461;-59
2022/03/27 10:17:30;;;;;;;20.77;13.60;;;;;;;;;;5095906;28;20047;-58
2022/03/27 10:20:09;;;;;;;37.95;10.20;;;;;;;;;;5092943;28;20122;-60
2022/03/27 10:22:40;;;;;;;8.25;7.07;;;;;;;;;;5091472;28;20122;-60
2022/03/27 10:25:08;;;;;;;14.88;10.15;;;;;;;;;;5097736;28;20039;-59
2022/03/27 10:27:35;;;;;;;5.45;2.90;;;;;;;;;;5094267;28;20498;-58
2022/03/27 10:30:00;;;;;;;15.48;11.40;;;;;;;;;;5093806;28;20105;-60
2022/03/27 10:32:26;;;;;;;13.27;8.00;;;;;;;;;;5093025;28;20032;-59
2022/03/27 10:34:54;;;;;;;18.65;11.55;;;;;;;;;;5095028;28;20047;-59
2022/03/27 10:37:32;;;;;;;15.45;9.23;;;;;;;;;;5093243;28;20033;-59
2022/03/27 10:40:12;;;;;;;11.63;6.35;;;;;;;;;;5094207;28;20062;-60
2022/03/27 10:42:43;;;;;;;22.27;6.78;;;;;;;;;;5091736;28;20048;-60
2022/03/27 10:45:09;;;;;;;16.13;8.73;;;;;;;;;;5093364;28;20613;-60
2022/03/27 10:47:34;;;;;;;20.15;10.32;;;;;;;;;;5094166;28;20040;-60
2022/03/27 10:50:05;;;;;;;7.95;6.03;;;;;;;;;;5092970;28;20733;-60
2022/03/27 10:52:30;;;;;;;;;;;;;;;;;;5095852;28;20048;-60
2022/03/27 10:55:01;;;;;;;12.38;7.65;;;;;;;;;;5100894;28;19916;-60
2022/03/27 10:57:30;;;;;;;12.98;9.00;;;;;;;;;;5095188;28;20570;-60
2022/03/27 10:59:56;;;;;;;16.65;11.57;;;;;;;;;;5097769;28;20040;-60
2022/03/27 11:02:40;;;;;;;12.55;7.70;;;;;;;;;;5096624;28;20037;-60
2022/03/27 11:05:06;;;;;;;15.40;11.10;;;;;;;;;;5097476;28;20134;-60
2022/03/27 11:07:31;;;;;;;34.22;21.05;;;;;;;;;;5102606;28;20126;-59
2022/03/27 11:09:56;;;;;;;22.85;13.30;;;;;;;;;;5100546;28;20063;-60
2022/03/27 11:12:25;;;;;;;19.08;10.93;;;;;;;;;;5097239;28;20039;-60
2022/03/27 11:14:57;;;;;;;16.30;12.95;;;;;;;;;;5099127;28;20055;-60
2022/03/27 11:17:42;;;;;;;28.55;15.00;;;;;;;;;;5099528;28;20101;-59
2022/03/27 11:20:28;;;;;;;21.42;7.38;;;;;;;;;;5097167;28;20128;-59
2022/03/27 11:22:55;;;;;;;27.15;10.70;;;;;;;;;;5094799;28;20117;-59
2022/03/27 11:25:23;;;;;;;17.92;9.90;;;;;;;;;;5099355;28;20054;-60
2022/03/27 11:27:55;;;;;;;14.80;9.93;;;;;;;;;;5099818;28;20055;-60
2022/03/27 11:30:21;;;;;;;19.02;11.40;;;;;;;;;;5097896;28;20075;-60
2022/03/27 11:33:05;;;;;;;26.33;10.55;;;;;;;;;;5096875;28;20472;-59
2022/03/27 11:35:30;;;;;;;19.20;13.07;;;;;;;;;;5098018;28;20044;-60
2022/03/27 11:38:22;;;;;;;22.60;12.45;;;;;;;;;;5098760;28;20161;-60
2022/03/27 11:40:47;;;;;;;25.13;10.60;;;;;;;;;;5092433;28;20027;-60
2022/03/27 11:43:26;;;;;;;31.48;20.05;;;;;;;;;;5092346;28;20088;-60
2022/03/27 11:45:52;;;;;;;35.35;19.38;;;;;;;;;;5094266;28;20283;-59
2022/03/27 11:48:17;;;;;;;21.08;14.25;;;;;;;;;;5100538;28;20063;-60
2022/03/27 11:50:43;;;;;;;18.95;10.68;;;;;;;;;;5095200;28;20035;-60
2022/03/27 11:53:09;;;;;;;32.72;11.75;;;;;;;;;;5100046;28;20036;-59
2022/03/27 11:55:35;;;;;;;21.98;15.27;;;;;;;;;;5101201;28;20137;-59
2022/03/27 11:58:03;;;;;;;35.00;14.15;;;;;;;;;;5100561;27;20482;-60
2022/03/27 12:00:35;;;;;;;20.55;11.88;;;;;;;;;;5097052;28;20562;-60
2022/03/27 12:03:01;;;;;;;9.27;5.28;;;;;;;;;;5100841;28;20071;-59
2022/03/27 12:05:34;;;;;;;17.70;8.02;;;;;;;;;;5098918;28;20059;-59
2022/03/27 12:07:59;;;;;;;29.95;10.10;;;;;;;;;;5097216;28;20054;-59
2022/03/27 12:10:26;;;;;;;9.15;8.25;;;;;;;;;;5115441;27;20032;-60
2022/03/27 12:12:56;;;;;;;16.58;6.05;;;;;;;;;;5101351;28;20486;-59
2022/03/27 12:15:21;;;;;;;15.25;7.88;;;;;;;;;;5101091;28;20032;-60
2022/03/27 12:17:46;;;;;;;13.35;7.90;;;;;;;;;;5102675;28;20050;-60
2022/03/27 12:20:12;;;;;;;43.47;10.30;;;;;;;;;;5096567;28;20036;-60
2022/03/27 12:22:51;;;;;;;14.05;5.13;;;;;;;;;;5099883;28;20062;-60
2022/03/27 12:25:25;;;;;;;25.77;10.90;;;;;;;;;;5100891;28;20138;-59
2022/03/27 12:30:44;;;;;;;25.50;10.90;;;;;;;;;;5097490;28;20059;-59
2022/03/27 12:33:10;;;;;;;30.02;10.98;;;;;;;;;;5097505;28;20051;-59
2022/03/27 12:35:35;;;;;;;25.67;8.68;;;;;;;;;;5100056;28;20130;-59
2022/03/27 12:38:00;;;;;;;20.13;8.60;;;;;;;;;;5098322;28;20121;-59
2022/03/27 12:40:29;;;;;;;33.10;9.63;;;;;;;;;;5100130;28;20114;-60
2022/03/27 12:43:09;;;;;;;44.05;10.80;;;;;;;;;;5101807;28;20043;-59
2022/03/27 12:45:36;;;;;;;31.80;9.98;;;;;;;;;;5100830;28;20059;-60
2022/03/27 12:48:16;;;;;;;14.02;8.80;;;;;;;;;;5098862;28;20045;-59
2022/03/27 12:50:43;;;;;;;41.28;10.38;;;;;;;;;;5099472;28;20039;-60
2022/03/27 12:53:11;;;;;;;28.85;10.45;;;;;;;;;;5099557;28;20039;-59
2022/03/27 12:55:40;;;;;;;15.70;7.60;;;;;;;;;;5099497;28;20100;-59
2022/03/27 12:58:06;;;;;;;10.68;6.32;;;;;;;;;;5102492;28;20052;-59
2022/03/27 13:00:32;;;;;;;21.50;10.30;;;;;;;;;;5100059;28;20060;-59
2022/03/27 13:03:11;;;;;;;29.05;7.70;;;;;;;;;;5098409;28;20062;-59
2022/03/27 13:05:36;;;;;;;16.83;11.25;;;;;;;;;;5099393;28;20059;-59
2022/03/27 13:08:02;;;;;;;20.58;7.03;;;;;;;;;;5094568;28;20761;-59
2022/03/27 13:10:28;;;;;;;29.10;11.20;;;;;;;;;;5101157;28;20118;-59
2022/03/27 13:13:01;;;;;;;19.67;7.68;;;;;;;;;;5095668;28;20042;-59
2022/03/27 13:15:38;;;;;;;31.23;9.45;;;;;;;;;;5099453;28;20061;-59
2022/03/27 13:18:07;;;;;;;18.05;9.57;;;;;;;;;;5099745;28;20529;-59
2022/03/27 13:20:34;;;;;;;16.95;8.80;;;;;;;;;;5100052;28;20056;-59
2022/03/27 13:22:59;;;;;;;26.95;10.52;;;;;;;;;;5100636;28;20134;-59
2022/03/27 13:25:24;;;;;;;18.15;9.38;;;;;;;;;;5097870;28;20548;-59
2022/03/27 13:27:49;;;;;;;18.58;9.38;;;;;;;;;;5098717;28;20120;-59
2022/03/27 13:30:15;;;;;;;31.60;10.45;;;;;;;;;;5096777;28;20031;-59
2022/03/27 13:32:40;;;;;;;26.48;10.30;;;;;;;;;;5099488;28;20042;-59
2022/03/27 13:35:06;;;;;;;25.52;10.23;;;;;;;;;;5097921;28;20044;-59
2022/03/27 13:37:31;;;;;;;24.77;10.45;;;;;;;;;;5097648;28;20096;-59
2022/03/27 13:39:56;;;;;;;16.35;11.05;;;;;;;;;;5094531;28;20050;-59
2022/03/27 13:45:06;;;;;;;33.35;10.48;;;;;;;;;;5098252;28;20042;-59
2022/03/27 13:47:31;;;;;;;22.73;10.50;;;;;;;;;;5097575;28;20039;-59
2022/03/27 13:49:57;;;;;;;29.45;12.57;;;;;;;;;;5099466;28;20059;-59
2022/03/27 13:52:22;;;;;;;14.77;7.88;;;;;;;;;;5097736;28;20408;-59
2022/03/27 13:54:47;;;;;;;14.77;9.65;;;;;;;;;;5097731;28;20051;-60
2022/03/27 13:57:13;;;;;;;12.73;5.97;;;;;;;;;;5098869;28;20044;-59
2022/03/27 13:59:38;;;;;;;16.15;8.57;;;;;;;;;;5095530;28;20051;-59
2022/03/27 14:02:04;;;;;;;20.35;9.13;;;;;;;;;;5093725;28;20364;-59
2022/03/27 14:04:32;;;;;;;20.75;7.85;;;;;;;;;;5097101;28;20051;-59
2022/03/27 14:07:00;;;;;;;26.30;10.93;;;;;;;;;;5097131;28;20035;-59
2022/03/27 14:09:25;;;;;;;20.27;10.70;;;;;;;;;;5097028;28;20050;-59
2022/03/27 14:11:51;;;;;;;24.63;9.30;;;;;;;;;;5097382;28;20024;-59
2022/03/27 14:14:16;;;;;;;30.63;10.60;;;;;;;;;;5100592;28;20040;-59
2022/03/27 14:16:43;;;;;;;16.55;10.85;;;;;;;;;;5096637;28;20044;-59
2022/03/27 14:19:11;;;;;;;21.40;10.77;;;;;;;;;;5098613;28;20044;-59
2022/03/27 14:21:36;;;;;;;17.23;11.27;;;;;;;;;;5100551;28;20094;-59
2022/03/27 14:24:02;;;;;;;31.02;14.10;;;;;;;;;;5104114;28;20503;-59
2022/03/27 14:26:27;;;;;;;21.52;12.32;;;;;;;;;;5097873;28;20047;-59
2022/03/27 14:28:52;;;;;;;20.33;10.63;;;;;;;;;;5093369;28;20086;-59
2022/03/27 14:31:18;;;;;;;33.45;16.77;;;;;;;;;;5095107;28;20161;-59